Aline, OK

4:28 AM CDT on July 31, 2014 (GMT -0500)
West (KOKCHERO2) Elev 1201 ft | 36.75 °N, 98.36 °W | Change Station

Current weather conditions updated 5 minutes ago

Clear
Clear
62.4 °F
Feels Like 62.4 °F
N
0.0
Wind Variable Wind from NE

Today is forecast to be Much Warmer than yesterday.

Today
High -- | Low -- °F
--% Chance of Precip.
Yesterday
High -- | Low -- °F
Precip. -- in
6:39 AM 8:40 PM
Waxing Crescent, 17% visible
Pressure 30.13 in
Visibility 9.0 miles
Clouds Clear
Dew Point 61 °F
Humidity 94%
Rainfall 0.00 in
Snow Depth Not available.
UV 0.0 out of 12
Pollen .70 out of 12
Air Quality Not available.
Flu Activity Not available.
METAR KAVK 310915Z AUTO 34007KT 9SM CLR 16/16 A3013 RMK AO2

More Conditions Fewer Conditions

Pressure 30.13 in
Visibility 9.0 miles
Clouds Clear
Dew Point 61 °F
Humidity 94%
Rainfall 0.00 in
Snow Depth Not available.
UV 0.0 out of 12
Pollen .70 out of 12
Air Quality Not available.
Flu Activity Not available.
METAR KAVK 310915Z AUTO 34007KT 9SM CLR 16/16 A3013 RMK AO2

More Conditions Fewer Conditions

10-Day Weather Forecast

Almanac

Astronomy

Jul. 31, 2014 Rise Set
Actual Time 6:39 AM CDT 8:40 PM CDT
Civil Twilight 6:10 AM CDT 9:09 PM CDT
Nautical Twilight 5:35 AM CDT 9:43 PM CDT
Astronomical Twilight 4:58 AM CDT 10:21 PM CDT
Moon 10:59 AM CDT 11:03 PM CDT
Length of Visible Light 14h 58m
Length of Day
14h 01m
Tomorrow will be 1m 44s shorter.
Waxing Crescent, 17% of the Moon is Illuminated
Today
Waxing Crescent
Aug 3
First Quarter
Aug 10
Full
Aug 17
Last Quarter
Aug 25
New

Today's Extremes

State Highs State Lows

Community

WunderPhotos

Upload Photos

1,739,284 photos uploaded!

Nearby

Snow Depth

Station Depth Elevation
No new snow has been reported.

Earthquake Activity

City Distance Mag. Time & Date
Perry, Oklahoma 56 miles 2.8 4:28 AM CDT
2014-07-27
Caldwell, Kansas 55 miles 3.4 5:57 AM CDT
2014-07-26
Helena, Oklahoma 14 miles 3.3 11:56 PM CDT
2014-07-24
Guthrie, Oklahoma 72 miles 2.7 5:27 AM CDT
2014-07-24
Minimum magnitude displayed is 2.5.

Coastal Water Temperatures

Place Temperature
No Stations Reporting

Nearby Weather Stations

Station Location Temp. Dew Point Humidity Wind Precip. Elev Updated Type
DDMET Ringwood, OK, Ringwood, OK 67 °F 66 °F 98% North  at  - 0.00 in / hr 1376 ft 2:00 AM CDT MADIS
West, Cherokee, OK 62.4 °F 61 °F 94% NE  at  0.0 mph - / hr 1201 ft 4:23 AM CDT Normal
Amateur Radio W5PDB, Jet, OK 63.9 °F 62 °F 92% North  at  - 0.00 in / hr 1280 ft 4:27 AM CDT Rapid Fire
1 block east of NWOSU, Alva, OK 61.5 °F 61 °F 99% North  at  0.0 mph 0.00 in / hr 1458 ft 4:28 AM CDT Rapid Fire

Show More Stations Show Fewer Stations